Fultonham, Ohio
Current Conditions -  °F | °C
As of 7:53 PM on Monday 22 Dec 2014 (Local Time) from KZZV Reporting Station
Scattered Clouds Scattered Clouds  
Wind Chill: 43°   Ceiling: Unl
Heat Index: 46°   Visibility: 10mi
Dew Point: 34°   Wind: 6mph
Humidity: 63%   Direction: 100°E
Pressure: 29.89"   Gusts: NA
Location:  39.86°N, 82.14°W
Report Text: KZZV 230053Z AUTO 10005KT 10SM SCT120 08/01 A2989 RMK AO2 SLP126 T00780011
Loading
Personal Weather Stations






























Interactive Weather Map New forecast layout! Learn more

10-Day Weather Forecast

Advertisements
Track Severe Weather on mobile